createdAt,value
2018-12-03T00:01:56.579Z,7.67
2018-12-03T00:08:03.243Z,6.87
2018-12-03T00:14:10.139Z,6.43
2018-12-03T00:20:17.916Z,5.30
2018-12-03T00:26:24.657Z,4.30
2018-12-03T00:32:31.678Z,3.73
2018-12-03T00:38:38.321Z,3.10
2018-12-03T00:44:44.945Z,3.03
2018-12-03T00:50:51.693Z,3.50
2018-12-03T00:56:58.285Z,3.27
2018-12-03T01:03:05.216Z,3.63
2018-12-03T01:09:12.508Z,3.17
2018-12-03T01:15:19.133Z,3.27
2018-12-03T01:21:25.867Z,3.07
2018-12-03T01:27:32.487Z,3.50
2018-12-03T01:33:39.180Z,3.73
2018-12-03T01:39:45.779Z,5.40
2018-12-03T01:45:52.406Z,5.57
2018-12-03T01:51:59.017Z,3.50
2018-12-03T01:58:05.769Z,3.27
2018-12-03T02:04:12.374Z,5.27
2018-12-03T02:10:19.307Z,3.10
2018-12-03T02:16:25.892Z,4.73
2018-12-03T02:22:32.562Z,3.70
2018-12-03T02:28:39.157Z,4.17
2018-12-03T02:34:45.769Z,4.43
2018-12-03T02:40:52.423Z,2.43
2018-12-03T02:46:59.042Z,4.67
2018-12-03T02:53:05.721Z,5.30
2018-12-03T02:59:12.320Z,3.50
2018-12-03T03:05:19.134Z,6.13
2018-12-03T03:11:25.918Z,3.80
2018-12-03T03:17:32.568Z,6.13
2018-12-03T03:23:39.257Z,4.60
2018-12-03T03:29:45.869Z,6.37
2018-12-03T03:35:52.540Z,5.43
2018-12-03T03:41:59.364Z,4.23
2018-12-03T03:48:07.983Z,9.30
2018-12-03T03:54:14.609Z,2.83
2018-12-03T04:00:21.296Z,4.53
2018-12-03T04:06:27.944Z,4.00
2018-12-03T04:12:34.558Z,3.53
2018-12-03T04:18:41.204Z,4.80
2018-12-03T04:24:47.793Z,4.07
2018-12-03T04:30:54.791Z,3.77
2018-12-03T04:37:01.432Z,4.77
2018-12-03T04:43:08.390Z,4.03
2018-12-03T04:49:14.991Z,2.37
2018-12-03T04:55:22.740Z,3.00
2018-12-03T05:01:29.375Z,3.37
2018-12-03T05:07:35.997Z,5.23
2018-12-03T05:13:43.806Z,2.53
2018-12-03T05:19:50.488Z,2.20
2018-12-03T05:26:02.275Z,2.77
2018-12-03T05:32:09.065Z,1.80
2018-12-03T05:38:15.715Z,4.97
2018-12-03T05:44:22.345Z,4.00
2018-12-03T05:50:28.954Z,1.80
2018-12-03T05:56:35.550Z,2.60
2018-12-03T06:02:42.145Z,2.30
2018-12-03T06:08:48.821Z,4.63
2018-12-03T06:14:55.458Z,5.80
2018-12-03T06:21:02.093Z,7.47
2018-12-03T06:27:09.878Z,6.27
2018-12-03T06:33:16.602Z,5.00
2018-12-03T06:39:23.558Z,6.40
2018-12-03T06:45:30.611Z,3.67
2018-12-03T06:51:37.231Z,4.73
2018-12-03T06:57:43.900Z,4.50
2018-12-03T07:03:50.715Z,6.57
2018-12-03T07:09:58.582Z,9.13
2018-12-03T07:16:05.212Z,7.20
2018-12-03T07:22:11.846Z,7.20
2018-12-03T07:28:18.639Z,7.53
2018-12-03T07:34:25.293Z,4.33
2018-12-03T07:40:31.961Z,7.20
2018-12-03T07:46:38.559Z,7.27
2018-12-03T07:52:45.196Z,11.03
2018-12-03T07:58:52.220Z,10.03
2018-12-03T08:04:58.836Z,12.73
2018-12-03T08:11:06.577Z,12.03
2018-12-03T08:17:13.207Z,14.50
2018-12-03T08:23:24.078Z,14.97
2018-12-03T08:29:30.721Z,19.83
2018-12-03T08:35:37.340Z,18.43
2018-12-03T08:41:44.000Z,16.00
2018-12-03T08:47:51.226Z,12.70
2018-12-03T08:53:58.199Z,17.40
2018-12-03T09:00:05.023Z,15.33
2018-12-03T09:06:13.968Z,9.57
2018-12-03T09:12:21.845Z,11.47
2018-12-03T09:18:39.951Z,9.93
2018-12-03T09:24:46.581Z,9.77
2018-12-03T09:30:53.222Z,9.10
2018-12-03T09:37:01.542Z,14.63
2018-12-03T09:43:08.543Z,11.50
2018-12-03T09:49:15.235Z,13.77
2018-12-03T09:55:29.959Z,17.07
2018-12-03T10:01:36.557Z,13.00
2018-12-03T10:07:43.236Z,18.57
2018-12-03T10:13:49.864Z,17.00
2018-12-03T10:19:56.579Z,11.67
2018-12-03T10:26:06.484Z,13.77
2018-12-03T10:32:19.485Z,10.90
2018-12-03T10:38:34.399Z,12.27
2018-12-03T10:44:41.059Z,16.03
2018-12-03T10:50:47.764Z,21.47
2018-12-03T10:56:54.438Z,16.83
2018-12-03T11:03:14.188Z,14.90
2018-12-03T11:09:22.675Z,18.57
2018-12-03T11:15:29.280Z,12.43
2018-12-03T11:21:36.063Z,11.70
2018-12-03T11:27:45.783Z,14.27
2018-12-03T11:33:53.825Z,15.37
2018-12-03T11:40:50.936Z,19.07
2018-12-03T11:46:57.544Z,15.00
2018-12-03T11:53:04.218Z,12.73
2018-12-03T11:59:10.812Z,12.10
2018-12-03T12:05:19.342Z,18.37
2018-12-03T12:11:25.923Z,13.63
2018-12-03T12:17:32.518Z,14.50
2018-12-03T12:23:39.129Z,14.50
2018-12-03T12:29:45.793Z,12.00
2018-12-03T12:36:04.820Z,14.73
2018-12-03T12:42:11.425Z,16.80
2018-12-03T12:48:18.096Z,13.30
2018-12-03T12:54:24.741Z,16.80
2018-12-03T13:00:31.345Z,12.53
2018-12-03T13:06:37.990Z,10.87
2018-12-03T13:12:45.221Z,11.90
2018-12-03T13:18:51.997Z,11.90
2018-12-03T13:24:58.619Z,10.07
2018-12-03T13:31:20.354Z,14.03
2018-12-03T13:37:27.275Z,11.33
2018-12-03T13:43:33.932Z,16.97
2018-12-03T13:49:40.626Z,11.60
2018-12-03T13:55:47.274Z,22.60
2018-12-03T14:01:53.985Z,14.97
2018-12-03T14:08:57.807Z,14.97
2018-12-03T14:16:01.298Z,9.67
2018-12-03T14:22:21.134Z,5.53
2018-12-03T14:28:27.933Z,6.27
2018-12-03T14:34:34.854Z,6.40
2018-12-03T14:40:41.497Z,7.80
2018-12-03T14:46:49.612Z,8.17
2018-12-03T14:52:56.225Z,9.00
2018-12-03T14:59:02.809Z,4.60
2018-12-03T15:05:10.018Z,6.90
2018-12-03T15:11:16.736Z,5.87
2018-12-03T15:17:23.485Z,7.53
2018-12-03T15:23:30.249Z,9.73
2018-12-03T15:29:38.297Z,6.23
2018-12-03T15:35:45.047Z,4.57
2018-12-03T15:41:52.016Z,12.37
2018-12-03T15:47:58.696Z,6.20
2018-12-03T15:54:06.748Z,11.23
2018-12-03T16:00:14.928Z,10.30
2018-12-03T16:06:21.668Z,8.20
2018-12-03T16:12:28.481Z,9.10
2018-12-03T16:18:36.541Z,7.07
2018-12-03T16:24:43.343Z,7.00
2018-12-03T16:30:51.199Z,8.87
2018-12-03T16:36:57.937Z,3.13
2018-12-03T16:43:04.588Z,5.63
2018-12-03T16:49:11.223Z,3.47
2018-12-03T16:55:17.885Z,5.33
2018-12-03T17:01:24.623Z,3.73
2018-12-03T17:07:31.323Z,2.80
2018-12-03T17:13:37.999Z,4.83
2018-12-03T17:19:44.621Z,4.07
2018-12-03T17:25:51.585Z,3.73
2018-12-03T17:31:59.377Z,3.17
2018-12-03T17:38:07.128Z,4.37
2018-12-03T17:44:13.768Z,5.83
2018-12-03T17:50:20.360Z,4.53
2018-12-03T17:56:28.389Z,4.47
2018-12-03T18:02:35.135Z,5.07
2018-12-03T18:08:41.865Z,6.90
2018-12-03T18:14:49.985Z,5.73
2018-12-03T18:20:56.602Z,6.67
2018-12-03T18:27:03.207Z,5.63
2018-12-03T18:33:09.829Z,7.30
2018-12-03T18:39:16.528Z,9.93
2018-12-03T18:45:23.457Z,7.33
2018-12-03T18:51:30.115Z,6.77
2018-12-03T18:57:36.971Z,6.97
2018-12-03T19:03:44.217Z,8.63
2018-12-03T19:09:50.955Z,9.27
2018-12-03T19:15:57.626Z,10.03
2018-12-03T19:22:04.237Z,8.87
2018-12-03T19:28:10.907Z,9.93
2018-12-03T19:34:17.628Z,11.87
2018-12-03T19:40:24.258Z,11.87
2018-12-03T19:46:31.232Z,17.70
2018-12-03T19:52:38.720Z,16.23
2018-12-03T19:58:49.163Z,15.17
2018-12-03T20:04:55.763Z,13.93
2018-12-03T20:11:02.611Z,15.03
2018-12-03T20:17:09.702Z,13.17
2018-12-03T20:23:50.555Z,19.80
2018-12-03T20:30:51.121Z,17.20
2018-12-03T20:37:58.678Z,15.50
2018-12-03T20:44:26.787Z,19.00
2018-12-03T20:51:20.851Z,17.53
2018-12-03T20:57:27.480Z,16.27
2018-12-03T21:03:34.107Z,21.70
2018-12-03T21:09:40.999Z,18.17
2018-12-03T21:15:47.810Z,18.40
2018-12-03T21:21:56.997Z,19.67
2018-12-03T21:28:06.617Z,19.50
2018-12-03T21:34:13.420Z,21.67
2018-12-03T21:40:20.136Z,23.57
2018-12-03T21:46:26.869Z,21.40
2018-12-03T21:52:33.844Z,16.77
2018-12-03T21:58:42.149Z,17.03
2018-12-03T22:04:48.825Z,16.53
2018-12-03T22:10:55.676Z,17.90
2018-12-03T22:17:03.798Z,17.73
2018-12-03T22:23:10.625Z,16.83
2018-12-03T22:29:17.515Z,23.63
2018-12-03T22:35:25.429Z,23.17
2018-12-03T22:41:32.082Z,24.37
2018-12-03T22:47:38.775Z,16.60
2018-12-03T22:53:45.383Z,21.57
2018-12-03T22:59:52.332Z,20.70
2018-12-03T23:05:59.363Z,22.70
2018-12-03T23:12:06.452Z,21.90
2018-12-03T23:18:58.390Z,19.70
2018-12-03T23:25:04.264Z,6.27
2018-12-03T23:31:09.943Z,5.17
2018-12-03T23:37:15.026Z,1.07
2018-12-03T23:43:19.888Z,0.60
2018-12-03T23:49:24.765Z,3.77
2018-12-03T23:55:29.619Z,3.20
